Time;durP1;ratioP1;P1;durP2;ratioP2;P2;SDS_P1;SDS_P2;PMS_P1;PMS_P2;Temp;Humidity;BMP_temperature;BMP_pressure;BME280_temperature;BME280_humidity;BME280_pressure;Samples;Min_cycle;Max_cycle;Signal;HPM_P1;HPM_P2
2022/09/22 00:01:05;;;;;;;21.85;6.68;;;;;;;10.36;66.63;100725.44;5064940;27;20047;-94
2022/09/22 00:03:35;;;;;;;11.88;6.05;;;;;;;10.29;66.63;100718.88;5118870;27;20559;-94
2022/09/22 00:06:04;;;;;;;20.33;7.45;;;;;;;10.39;66.56;100724.38;5079376;27;20036;-94
2022/09/22 00:08:33;;;;;;;16.52;6.65;;;;;;;10.34;67.04;100718.56;5087216;27;20486;-94
2022/09/22 00:11:15;;;;;;;14.73;6.40;;;;;;;10.19;67.31;100718.69;5079685;27;20057;-94
2022/09/22 00:13:58;;;;;;;14.88;6.22;;;;;;;10.20;67.03;100725.69;5080186;27;20047;-94
2022/09/22 00:16:29;;;;;;;12.63;6.03;;;;;;;10.40;66.58;100715.44;5094471;27;20043;-94
2022/09/22 00:18:57;;;;;;;14.45;6.03;;;;;;;10.45;66.20;100725.72;5075836;28;20051;-94
2022/09/22 00:21:26;;;;;;;15.38;5.70;;;;;;;10.38;66.11;100725.31;5078770;27;20047;-94
2022/09/22 00:23:53;;;;;;;11.55;5.20;;;;;;;10.42;65.77;100732.94;5065711;27;20053;-94
2022/09/22 00:26:21;;;;;;;14.68;6.30;;;;;;;10.36;65.70;100736.06;5089062;27;20050;-94
2022/09/22 00:28:50;;;;;;;14.52;5.95;;;;;;;10.38;65.75;100726.19;5098432;27;20055;-94
2022/09/22 00:31:20;;;;;;;19.55;6.30;;;;;;;10.34;65.68;100732.66;5087300;28;20054;-94
2022/09/22 00:33:47;;;;;;;18.17;6.57;;;;;;;10.42;65.45;100729.44;5087988;27;20387;-93
2022/09/22 00:36:15;;;;;;;20.25;6.47;;;;;;;10.34;66.27;100732.66;5077881;28;20124;-94
2022/09/22 00:38:43;;;;;;;15.07;6.20;;;;;;;10.25;66.35;100733.28;5084333;27;20047;-94
2022/09/22 00:41:27;;;;;;;12.23;6.75;;;;;;;10.03;66.79;100728.72;5065286;28;20040;-94
2022/09/22 00:44:25;;;;;;;15.60;6.88;;;;;;;9.94;67.11;100732.84;5071541;27;20055;-94
2022/09/22 00:47:08;;;;;;;17.02;7.13;;;;;;;10.05;67.43;100731.25;5105767;27;20542;-94
2022/09/22 00:49:50;;;;;;;18.20;7.97;;;;;;;9.98;67.33;100730.84;5096028;27;20112;-93
2022/09/22 00:52:40;;;;;;;36.28;9.75;;;;;;;9.87;67.46;100738.72;5069619;28;20067;-94
2022/09/22 00:55:22;;;;;;;23.50;8.88;;;;;;;9.98;67.17;100738.81;5091588;27;20055;-93
2022/09/22 00:57:49;;;;;;;20.00;8.43;;;;;;;10.03;67.34;100735.84;5082804;27;20039;-94
2022/09/22 01:00:16;;;;;;;21.67;7.68;;;;;;;10.07;66.86;100731.97;5064152;28;20104;-94
2022/09/22 01:02:48;;;;;;;26.17;9.02;;;;;;;9.95;67.19;100728.44;5073003;28;20169;-94
2022/09/22 01:05:14;;;;;;;15.05;7.80;;;;;;;10.00;67.13;100728.94;5087585;27;20078;-94
2022/09/22 01:07:42;;;;;;;20.85;7.97;;;;;;;9.93;67.19;100728.53;5070580;27;20043;-94
2022/09/22 01:10:10;;;;;;;22.38;8.20;;;;;;;9.99;67.35;100733.38;5077816;27;20115;-94
2022/09/22 01:12:41;;;;;;;21.95;8.45;;;;;;;9.87;67.12;100726.31;5089931;27;20061;-94
2022/09/22 01:15:23;;;;;;;16.83;7.63;;;;;;;9.85;67.61;100727.38;5083743;27;20132;-94
2022/09/22 01:18:16;;;;;;;19.42;7.20;;;;;;;9.71;67.91;100728.34;5098995;27;20043;-95
2022/09/22 01:20:55;;;;;;;16.40;6.28;;;;;;;9.92;67.11;100724.19;5065120;28;20529;-94
2022/09/22 01:23:40;;;;;;;17.17;6.75;;;;;;;9.68;67.48;100721.47;5068926;27;20051;-94
2022/09/22 01:26:25;;;;;;;20.15;6.72;;;;;;;9.60;67.67;100715.00;5084690;27;20130;-93
2022/09/22 01:28:57;;;;;;;16.30;7.45;;;;;;;9.82;67.66;100711.66;5079333;28;20471;-94
2022/09/22 01:31:38;;;;;;;14.60;6.25;;;;;;;9.53;68.17;100717.22;5075943;28;20124;-94
2022/09/22 01:34:28;;;;;;;13.93;5.93;;;;;;;9.62;67.58;100719.25;5076815;27;20607;-94
2022/09/22 01:37:28;;;;;;;13.13;6.50;;;;;;;9.61;67.77;100714.03;5067969;28;20043;-94
2022/09/22 01:40:01;;;;;;;19.20;7.20;;;;;;;9.69;67.39;100709.03;5075275;28;20040;-94
2022/09/22 01:42:36;;;;;;;16.30;6.72;;;;;;;9.59;67.52;100711.47;5079242;28;20057;-93
2022/09/22 01:45:09;;;;;;;17.77;6.00;;;;;;;9.66;67.94;100706.59;5076120;27;20071;-93
2022/09/22 01:47:58;;;;;;;12.07;6.18;;;;;;;9.51;67.77;100708.53;5062860;27;20050;-93
2022/09/22 01:50:33;;;;;;;12.82;5.47;;;;;;;9.53;67.47;100706.63;5069982;27;20062;-93
2022/09/22 01:53:03;;;;;;;14.63;6.18;;;;;;;9.63;67.49;100710.31;5085708;27;20043;-94
2022/09/22 01:55:36;;;;;;;13.85;5.70;;;;;;;9.50;67.63;100704.19;5078095;28;20499;-93
2022/09/22 01:58:09;;;;;;;12.80;5.30;;;;;;;9.57;67.94;100706.31;5064038;27;20047;-93
2022/09/22 02:00:39;;;;;;;14.20;5.68;;;;;;;9.62;67.55;100706.00;5096807;27;20039;-93
2022/09/22 02:03:10;;;;;;;11.20;5.20;;;;;;;9.60;67.90;100699.94;5072877;27;20485;-93
2022/09/22 02:05:56;;;;;;;14.27;5.75;;;;;;;9.48;67.56;100690.19;5091491;27;20055;-94
2022/09/22 02:08:35;;;;;;;16.40;6.03;;;;;;;9.51;67.65;100690.81;5081051;27;20050;-93
2022/09/22 02:11:15;;;;;;;10.32;4.78;;;;;;;9.55;67.52;100702.91;5080344;27;20172;-93
2022/09/22 02:13:43;;;;;;;10.13;4.82;;;;;;;9.62;67.37;100697.19;5056633;27;20489;-93
2022/09/22 02:16:12;;;;;;;13.32;5.95;;;;;;;9.53;67.39;100698.66;5101371;27;20077;-93
2022/09/22 02:18:44;;;;;;;10.95;4.57;;;;;;;9.47;67.56;100691.16;5072323;27;20071;-93
2022/09/22 02:21:13;;;;;;;11.60;4.72;;;;;;;9.51;67.61;100693.47;5099879;28;20491;-93
2022/09/22 02:23:41;;;;;;;12.45;5.15;;;;;;;9.43;67.97;100689.66;5070683;28;20074;-94
2022/09/22 02:26:08;;;;;;;11.57;4.90;;;;;;;9.50;67.83;100698.88;5084149;27;20046;-94
2022/09/22 02:28:37;;;;;;;15.40;5.38;;;;;;;9.39;67.73;100694.34;5090870;27;20047;-93
2022/09/22 02:31:06;;;;;;;13.02;5.65;;;;;;;9.44;67.81;100680.75;5090475;27;20053;-95
2022/09/22 02:33:48;;;;;;;9.13;4.88;;;;;;;9.39;67.86;100690.81;5067973;28;20044;-87
2022/09/22 02:36:24;;;;;;;13.15;4.82;;;;;;;9.32;67.76;100691.25;5069557;27;20061;-86
2022/09/22 02:39:08;;;;;;;7.68;4.55;;;;;;;9.32;67.64;100690.41;5087085;27;20071;-87
2022/09/22 02:41:44;;;;;;;14.35;5.38;;;;;;;9.34;67.66;100688.53;5072827;27;20475;-87
2022/09/22 02:44:16;;;;;;;9.95;4.93;;;;;;;9.44;67.34;100689.56;5105645;27;20436;-87
2022/09/22 02:46:47;;;;;;;8.73;4.80;;;;;;;9.42;67.44;100690.63;5088283;27;20039;-87
2022/09/22 02:49:16;;;;;;;12.05;5.40;;;;;;;9.33;67.83;100692.09;5079159;27;20047;-87
2022/09/22 02:51:45;;;;;;;15.07;4.75;;;;;;;9.39;67.89;100691.69;5078499;27;20129;-87
2022/09/22 02:54:13;;;;;;;13.30;4.95;;;;;;;9.30;67.93;100690.53;5123342;27;20062;-87
2022/09/22 02:56:41;;;;;;;10.82;4.85;;;;;;;9.32;67.65;100685.97;5089051;27;20431;-87
2022/09/22 02:59:08;;;;;;;9.13;4.55;;;;;;;9.20;67.88;100681.50;5080363;27;20134;-87
2022/09/22 03:01:35;;;;;;;11.43;4.65;;;;;;;9.31;67.42;100683.41;5062159;27;20074;-87
2022/09/22 03:04:02;;;;;;;10.50;4.28;;;;;;;9.21;67.77;100682.34;5073441;27;20047;-87
2022/09/22 03:06:29;;;;;;;10.90;5.03;;;;;;;9.17;67.75;100679.06;5098168;27;20561;-86
2022/09/22 03:08:56;;;;;;;6.50;4.28;;;;;;;9.23;67.87;100681.28;5125122;27;20081;-88
2022/09/22 03:11:25;;;;;;;9.73;4.53;;;;;;;9.22;67.94;100684.91;5093147;27;20050;-87
2022/09/22 03:13:52;;;;;;;14.43;5.13;;;;;;;9.23;67.61;100683.09;5064428;27;20826;-86
2022/09/22 03:16:19;;;;;;;10.05;4.53;;;;;;;9.15;67.50;100686.28;5102213;27;20063;-86
2022/09/22 03:18:46;;;;;;;9.48;4.47;;;;;;;9.13;67.85;100682.88;5105809;27;20077;-87
2022/09/22 03:21:12;;;;;;;9.40;4.38;;;;;;;9.13;67.47;100685.53;5088082;27;20040;-88
2022/09/22 03:23:39;;;;;;;9.02;4.38;;;;;;;9.08;67.66;100679.69;5096898;27;20666;-87
2022/09/22 03:26:06;;;;;;;11.23;4.57;;;;;;;9.16;67.33;100680.03;5096221;27;20137;-87
2022/09/22 03:28:32;;;;;;;9.27;4.32;;;;;;;9.12;67.65;100678.53;5130742;27;20141;-87
2022/09/22 03:30:59;;;;;;;12.65;4.53;;;;;;;9.09;67.76;100674.31;5080983;27;20402;-87
2022/09/22 03:33:26;;;;;;;11.15;4.50;;;;;;;9.17;67.35;100676.44;5108825;27;20073;-87
2022/09/22 03:35:52;;;;;;;10.57;4.40;;;;;;;9.17;67.56;100679.06;5101253;27;20498;-86
2022/09/22 03:38:19;;;;;;;11.55;4.82;;;;;;;9.20;67.44;100672.72;5097694;27;20070;-87
2022/09/22 03:40:51;;;;;;;11.63;4.47;;;;;;;9.11;67.09;100683.00;5094098;27;20074;-87
2022/09/22 03:43:18;;;;;;;9.55;4.22;;;;;;;9.14;67.36;100684.59;5105689;27;20393;-87
2022/09/22 03:45:45;;;;;;;10.23;4.40;;;;;;;9.11;67.80;100684.81;5073732;27;20058;-86
2022/09/22 03:48:12;;;;;;;12.40;4.38;;;;;;;9.10;67.39;100686.59;5089470;27;20571;-87
2022/09/22 03:50:38;;;;;;;13.75;4.95;;;;;;;9.11;67.37;100682.16;5131515;27;20135;-87
2022/09/22 03:53:05;;;;;;;7.70;4.35;;;;;;;9.04;67.46;100675.59;5098680;27;20075;-87
2022/09/22 03:55:33;;;;;;;13.52;5.03;;;;;;;9.03;67.67;100679.16;5083124;27;20058;-87
2022/09/22 03:57:59;;;;;;;12.15;4.30;;;;;;;9.05;67.49;100678.09;5071654;27;20548;-87
2022/09/22 04:00:27;;;;;;;11.35;4.43;;;;;;;9.03;67.60;100676.50;5104425;27;20724;-88
2022/09/22 04:02:55;;;;;;;11.73;4.88;;;;;;;8.98;67.51;100670.69;5124298;27;20043;-86
2022/09/22 04:05:22;;;;;;;7.30;4.32;;;;;;;8.99;67.29;100672.41;5125938;27;20074;-87
2022/09/22 04:07:49;;;;;;;6.57;4.03;;;;;;;8.95;67.40;100661.16;5087906;27;20089;-88
2022/09/22 04:10:16;;;;;;;10.57;4.50;;;;;;;8.87;67.73;100669.63;5070081;27;20051;-88
2022/09/22 04:12:42;;;;;;;7.40;3.80;;;;;;;8.84;67.73;100666.34;5074301;27;20043;-87
2022/09/22 04:15:09;;;;;;;7.68;3.78;;;;;;;8.86;67.74;100664.44;5094916;27;20062;-87
2022/09/22 04:17:36;;;;;;;12.13;3.72;;;;;;;8.80;67.84;100659.53;5105762;27;20051;-85
2022/09/22 04:20:04;;;;;;;9.82;3.90;;;;;;;8.79;67.52;100658.72;5101004;27;20066;-86
2022/09/22 04:22:31;;;;;;;10.77;4.38;;;;;;;8.64;67.76;100657.09;5099915;27;20542;-87
2022/09/22 04:24:58;;;;;;;8.70;4.03;;;;;;;8.68;67.63;100655.94;5077587;27;20034;-87
2022/09/22 04:27:25;;;;;;;10.18;4.10;;;;;;;8.73;67.73;100653.84;5071844;27;20475;-87
2022/09/22 04:29:51;;;;;;;7.28;3.75;;;;;;;8.72;67.44;100653.94;5077407;27;20075;-87
2022/09/22 04:32:18;;;;;;;9.18;3.95;;;;;;;8.64;67.37;100657.94;5061746;27;20081;-86
2022/09/22 04:34:45;;;;;;;10.20;4.18;;;;;;;8.64;67.67;100662.38;5062596;27;20271;-87
2022/09/22 04:37:12;;;;;;;12.25;4.35;;;;;;;8.57;67.77;100656.66;5090390;27;20071;-81
2022/09/22 04:39:39;;;;;;;11.30;4.63;;;;;;;8.58;67.71;100658.34;5121033;27;20518;-82
2022/09/22 04:42:07;;;;;;;7.97;3.80;;;;;;;8.46;67.88;100664.47;5089006;27;20461;-81
2022/09/22 04:44:34;;;;;;;6.72;3.97;;;;;;;8.52;68.01;100669.34;5090544;27;20044;-82
2022/09/22 04:47:01;;;;;;;10.63;4.10;;;;;;;8.50;68.12;100671.25;5062472;27;20064;-81
2022/09/22 04:49:28;;;;;;;7.38;3.88;;;;;;;8.50;68.05;100667.75;5090855;27;20071;-81
2022/09/22 04:51:55;;;;;;;16.60;4.78;;;;;;;8.56;67.98;100667.34;5092576;27;20039;-81
2022/09/22 04:54:21;;;;;;;5.85;3.40;;;;;;;8.48;67.90;100668.72;5091579;27;20055;-82
2022/09/22 04:56:48;;;;;;;9.65;4.70;;;;;;;8.56;67.76;100662.91;5079600;27;20050;-81
2022/09/22 04:59:15;;;;;;;9.60;3.72;;;;;;;8.56;67.72;100670.84;5076202;27;20502;-81
2022/09/22 05:01:41;;;;;;;8.63;4.25;;;;;;;8.47;68.14;100671.44;5092571;27;20078;-81
2022/09/22 05:04:08;;;;;;;12.73;5.00;;;;;;;8.50;68.21;100668.63;5069949;27;20046;-81
2022/09/22 05:06:35;;;;;;;9.95;4.95;;;;;;;8.51;68.13;100670.31;5090077;27;20119;-82
2022/09/22 05:09:02;;;;;;;8.77;4.35;;;;;;;8.50;68.28;100667.75;5088705;27;20038;-82
2022/09/22 05:11:30;;;;;;;7.18;4.20;;;;;;;8.53;68.01;100670.22;5114067;27;20123;-81
2022/09/22 05:13:57;;;;;;;7.70;4.13;;;;;;;8.47;68.35;100672.31;5104377;27;20114;-81
2022/09/22 05:16:24;;;;;;;13.70;4.03;;;;;;;8.52;68.25;100673.78;5066353;27;20114;-81
2022/09/22 05:18:51;;;;;;;9.90;4.28;;;;;;;8.47;68.69;100674.09;5128511;27;20508;-81
2022/09/22 05:21:18;;;;;;;9.55;4.10;;;;;;;8.52;68.43;100676.44;5079932;27;20043;-81
2022/09/22 05:23:45;;;;;;;14.75;4.38;;;;;;;8.46;68.78;100673.25;5063973;27;20157;-81
2022/09/22 05:26:12;;;;;;;8.82;4.22;;;;;;;8.51;68.82;100675.59;5088990;27;20078;-81
2022/09/22 05:28:39;;;;;;;10.05;4.45;;;;;;;8.60;68.46;100675.00;5100462;27;20039;-81
2022/09/22 05:31:06;;;;;;;9.32;4.20;;;;;;;8.57;68.58;100677.81;5094755;27;20145;-81
2022/09/22 05:33:32;;;;;;;9.85;4.80;;;;;;;8.43;68.83;100669.97;5117954;27;20101;-81
2022/09/22 05:35:59;;;;;;;13.45;5.50;;;;;;;8.45;69.00;100678.66;5073155;27;20096;-81
2022/09/22 05:38:26;;;;;;;16.98;5.97;;;;;;;8.45;69.02;100676.84;5091113;27;20040;-81
2022/09/22 05:40:52;;;;;;;9.57;4.60;;;;;;;8.52;68.77;100679.94;5096080;27;20046;-82
2022/09/22 05:43:19;;;;;;;12.20;5.05;;;;;;;8.50;68.83;100684.50;5077490;27;20050;-81
2022/09/22 05:45:46;;;;;;;7.63;4.28;;;;;;;8.56;69.08;100686.72;5075700;27;20551;-81
2022/09/22 05:48:12;;;;;;;12.40;4.40;;;;;;;8.59;69.42;100685.69;5121940;27;20043;-82
2022/09/22 05:50:39;;;;;;;8.98;4.30;;;;;;;8.69;69.11;100682.31;5085288;27;20047;-81
2022/09/22 05:53:07;;;;;;;10.40;4.82;;;;;;;8.84;68.92;100677.78;5100023;27;20062;-81
2022/09/22 05:55:34;;;;;;;10.40;4.75;;;;;;;8.82;68.96;100677.03;5089552;27;20467;-81
2022/09/22 05:58:01;;;;;;;12.02;4.97;;;;;;;8.84;69.26;100676.94;5103072;27;20041;-81
2022/09/22 06:00:28;;;;;;;11.55;5.03;;;;;;;8.95;69.15;100676.19;5122513;27;20040;-81
2022/09/22 06:02:55;;;;;;;11.32;4.75;;;;;;;8.87;69.12;100671.44;5107409;27;20478;-81
2022/09/22 06:05:22;;;;;;;11.60;5.10;;;;;;;8.89;69.50;100675.66;5123880;27;20046;-81
2022/09/22 06:07:59;;;;;;;9.43;4.82;;;;;;;8.88;69.24;100673.13;5093644;27;20062;-81
2022/09/22 06:10:26;;;;;;;10.43;5.55;;;;;;;8.93;69.07;100676.31;5074778;27;20170;-81
2022/09/22 06:13:03;;;;;;;13.80;5.18;;;;;;;8.91;68.31;100673.75;5088570;27;20043;-81
2022/09/22 06:15:32;;;;;;;17.17;5.45;;;;;;;8.90;68.48;100679.16;5092953;27;20066;-81
2022/09/22 06:18:00;;;;;;;13.68;5.57;;;;;;;8.94;68.19;100674.50;5084437;27;20474;-81
2022/09/22 06:20:26;;;;;;;16.75;6.05;;;;;;;9.03;68.08;100676.50;5106725;27;20439;-81
2022/09/22 06:22:55;;;;;;;19.38;6.55;;;;;;;8.95;67.90;100676.19;5090748;27;20050;-81
2022/09/22 06:25:22;;;;;;;25.05;6.22;;;;;;;9.01;68.11;100675.81;5107444;27;20494;-81
2022/09/22 06:28:06;;;;;;;12.93;5.85;;;;;;;9.02;68.25;100677.47;5106549;27;20119;-81
2022/09/22 06:30:34;;;;;;;15.55;5.70;;;;;;;9.13;68.06;100681.09;5094937;27;20067;-81
2022/09/22 06:33:01;;;;;;;12.60;6.05;;;;;;;9.13;68.23;100682.88;5073068;27;20047;-81
2022/09/22 06:35:36;;;;;;;14.35;5.82;;;;;;;9.12;68.16;100676.75;5092805;27;20516;-81
2022/09/22 06:38:05;;;;;;;16.27;6.53;;;;;;;9.16;68.67;100676.53;5086739;27;20042;-81
2022/09/22 06:40:35;;;;;;;15.82;6.50;;;;;;;9.23;68.79;100681.28;5103805;27;20051;-80
2022/09/22 06:43:06;;;;;;;17.80;7.45;;;;;;;9.29;69.15;100685.34;5082544;27;20047;-81
2022/09/22 06:45:33;;;;;;;19.73;7.63;;;;;;;9.33;69.33;100679.69;5083397;27;20035;-81
2022/09/22 06:48:00;;;;;;;25.98;9.48;;;;;;;9.39;69.35;100685.53;5074052;27;20036;-81
2022/09/22 06:50:32;;;;;;;23.38;9.75;;;;;;;9.49;69.34;100683.91;5098603;27;20051;-81
2022/09/22 06:52:59;;;;;;;27.83;10.05;;;;;;;9.46;68.99;100677.03;5097764;27;20086;-81
2022/09/22 06:55:27;;;;;;;28.02;9.70;;;;;;;9.57;68.94;100681.59;5101099;27;20107;-81
2022/09/22 06:57:58;;;;;;;26.92;10.48;;;;;;;9.50;69.54;100681.19;5113461;27;20063;-81
2022/09/22 07:00:30;;;;;;;22.73;9.75;;;;;;;9.71;69.18;100677.97;5065006;27;20134;-81
2022/09/22 07:03:09;;;;;;;39.70;9.75;;;;;;;9.66;69.64;100678.28;5114629;27;20047;-81
2022/09/22 07:05:36;;;;;;;24.35;10.10;;;;;;;9.74;69.36;100669.78;5090032;27;20040;-81
2022/09/22 07:08:07;;;;;;;25.17;10.02;;;;;;;9.80;69.54;100672.00;5089332;27;20095;-81
2022/09/22 07:10:36;;;;;;;30.50;9.98;;;;;;;9.92;69.36;100670.25;5110291;27;20070;-81
2022/09/22 07:13:04;;;;;;;30.77;11.45;;;;;;;9.96;69.47;100669.09;5110868;27;20035;-81
2022/09/22 07:15:32;;;;;;;23.38;10.35;;;;;;;10.09;69.07;100667.22;5070556;27;20043;-81
2022/09/22 07:17:58;;;;;;;23.55;10.45;;;;;;;10.19;69.34;100662.09;5121136;27;20490;-80
2022/09/22 07:20:25;;;;;;;26.40;10.65;;;;;;;10.23;69.14;100660.91;5081475;27;20142;-80
2022/09/22 07:22:59;;;;;;;24.52;11.30;;;;;;;10.29;69.09;100652.53;5086569;27;20039;-81
2022/09/22 07:25:27;;;;;;;22.48;10.93;;;;;;;10.41;68.73;100654.28;5087802;27;20050;-81
2022/09/22 07:27:56;;;;;;;22.88;8.88;;;;;;;10.48;68.53;100657.31;5104378;27;20145;-80
2022/09/22 07:30:25;;;;;;;28.27;9.60;;;;;;;10.53;68.38;100649.84;5114811;27;20473;-80
2022/09/22 07:32:51;;;;;;;22.50;9.40;;;;;;;10.60;68.40;100653.72;5119777;27;20376;-81
2022/09/22 07:35:18;;;;;;;22.13;8.50;;;;;;;10.62;68.49;100651.81;5097403;27;20043;-80
2022/09/22 07:37:45;;;;;;;28.20;10.18;;;;;;;10.70;68.30;100653.88;5100877;27;20439;-80
2022/09/22 07:40:13;;;;;;;23.33;9.73;;;;;;;10.74;68.06;100649.19;5107795;27;20078;-80
2022/09/22 07:42:40;;;;;;;25.25;9.50;;;;;;;10.75;68.52;100651.72;5094053;27;20062;-80
2022/09/22 07:45:14;;;;;;;25.38;10.35;;;;;;;10.82;68.44;100644.97;5128679;27;20036;-81
2022/09/22 07:50:29;;;;;;;24.33;9.38;;;;;;;10.86;67.83;100642.91;5112513;27;20461;-80
2022/09/22 07:52:56;;;;;;;20.08;8.77;;;;;;;10.90;67.90;100636.41;5100069;27;20239;-80
2022/09/22 07:55:23;;;;;;;26.00;9.68;;;;;;;10.95;67.63;100636.91;5116534;27;20048;-80
2022/09/22 07:57:57;;;;;;;25.70;10.48;;;;;;;10.94;68.54;100631.69;5105409;27;20134;-80
2022/09/22 08:00:26;;;;;;;29.77;9.75;;;;;;;11.02;68.15;100638.13;5125553;27;20126;-80
2022/09/22 08:02:54;;;;;;;27.42;10.57;;;;;;;11.07;67.91;100633.31;5107210;27;20141;-79
2022/09/22 08:05:22;;;;;;;22.48;9.90;;;;;;;11.10;67.83;100628.72;5079548;27;20078;-80
2022/09/22 08:07:49;;;;;;;16.20;8.30;;;;;;;11.14;67.61;100635.47;5089401;27;20047;-80
2022/09/22 08:10:17;;;;;;;23.75;10.02;;;;;;;11.17;67.62;100632.56;5093514;27;20457;-81
2022/09/22 08:12:44;;;;;;;23.77;10.05;;;;;;;11.18;67.42;100628.97;5064543;27;20043;-80
2022/09/22 08:15:11;;;;;;;21.08;8.48;;;;;;;11.22;67.59;100635.72;5082438;27;20573;-80
2022/09/22 08:17:39;;;;;;;17.25;9.85;;;;;;;11.22;67.97;100631.25;5093829;27;20072;-80
2022/09/22 08:20:07;;;;;;;21.33;8.82;;;;;;;11.29;67.80;100629.78;5112785;27;20062;-80
2022/09/22 08:22:34;;;;;;;19.27;8.27;;;;;;;11.34;67.42;100628.59;5089657;27;20141;-80
2022/09/22 08:25:01;;;;;;;18.25;7.63;;;;;;;11.40;67.71;100633.44;5114237;27;20042;-80
2022/09/22 08:27:28;;;;;;;25.08;9.73;;;;;;;11.43;67.65;100628.72;5112521;27;20138;-80
2022/09/22 08:29:55;;;;;;;18.20;8.02;;;;;;;11.46;67.48;100631.13;5091254;28;20456;-80
2022/09/22 08:32:25;;;;;;;17.80;8.40;;;;;;;11.50;67.36;100624.59;5079527;27;20047;-80
2022/09/22 08:34:56;;;;;;;20.13;8.73;;;;;;;11.54;67.54;100619.88;5082253;27;20099;-80
2022/09/22 08:37:26;;;;;;;23.55;8.07;;;;;;;11.58;67.43;100628.47;5097215;27;20146;-80
2022/09/22 08:39:52;;;;;;;19.13;7.70;;;;;;;11.60;67.65;100622.06;5112962;27;20516;-79
2022/09/22 08:42:22;;;;;;;16.20;7.35;;;;;;;11.66;67.54;100623.38;5090977;27;20057;-80
2022/09/22 08:45:10;;;;;;;15.13;7.18;;;;;;;11.68;67.57;100621.44;5123117;27;20039;-80
2022/09/22 08:53:31;;;;;;;12.68;5.00;;;;;;;11.77;67.25;100628.66;5142690;27;20045;-79
2022/09/22 08:56:29;;;;;;;10.43;6.00;;;;;;;11.74;67.34;100626.25;5087966;27;20080;-80
2022/09/22 08:59:21;;;;;;;11.13;5.28;;;;;;;11.77;67.04;100622.50;5119743;27;20537;-80
2022/09/22 09:02:22;;;;;;;13.55;5.07;;;;;;;11.80;66.83;100619.59;5100057;27;20093;-79
2022/09/22 09:05:03;;;;;;;12.07;5.63;;;;;;;11.84;67.08;100611.25;5129315;27;20044;-80
2022/09/22 09:07:44;;;;;;;12.65;5.15;;;;;;;11.90;66.96;100608.09;5106460;27;20772;-80
2022/09/22 09:10:46;;;;;;;11.93;4.00;;;;;;;11.91;66.43;100615.13;5117156;27;20134;-80
2022/09/22 09:13:47;;;;;;;11.75;5.30;;;;;;;11.93;67.22;100605.22;5091119;27;20048;-80
2022/09/22 09:16:38;;;;;;;7.78;3.63;;;;;;;11.98;66.82;100612.78;5103487;27;20057;-80
2022/09/22 09:19:15;;;;;;;7.97;3.83;;;;;;;12.08;66.78;100613.72;5124299;27;20032;-80
2022/09/22 09:21:50;;;;;;;8.40;3.70;;;;;;;12.09;66.68;100611.94;5101332;27;20037;-80
2022/09/22 09:24:46;;;;;;;7.82;3.55;;;;;;;12.07;66.67;100614.72;5111703;27;20047;-80
2022/09/22 09:27:37;;;;;;;5.53;2.92;;;;;;;12.20;66.29;100611.88;5124444;27;20035;-80
2022/09/22 09:30:16;;;;;;;6.70;2.70;;;;;;;12.20;66.05;100606.56;5099043;27;20032;-80
2022/09/22 09:32:52;;;;;;;6.28;3.95;;;;;;;12.24;66.05;100604.50;5104886;27;20047;-80
2022/09/22 09:35:27;;;;;;;7.38;2.33;;;;;;;12.31;66.23;100600.31;5123195;27;20039;-80
2022/09/22 09:37:57;;;;;;;7.55;3.55;;;;;;;12.36;66.07;100601.66;5093762;27;20047;-80
2022/09/22 09:40:24;;;;;;;7.00;2.92;;;;;;;12.42;65.77;100604.78;5099174;27;20030;-80
2022/09/22 09:43:02;;;;;;;3.85;2.25;;;;;;;12.41;65.62;100603.06;5130739;27;20062;-80
2022/09/22 09:45:58;;;;;;;3.47;2.40;;;;;;;12.41;65.50;100605.75;5104707;27;20048;-80
2022/09/22 09:49:04;;;;;;;4.90;2.20;;;;;;;12.42;65.67;100604.78;5066095;27;20393;-80
2022/09/22 09:51:36;;;;;;;6.88;2.17;;;;;;;12.54;64.91;100598.41;5071300;27;20490;-80
2022/09/22 09:54:06;;;;;;;3.50;1.85;;;;;;;12.59;64.71;100594.41;5117876;27;20040;-80
2022/09/22 09:56:36;;;;;;;3.63;1.70;;;;;;;12.65;64.27;100594.84;5101474;27;20047;-80
2022/09/22 10:01:53;;;;;;;3.72;1.70;;;;;;;12.70;63.82;100588.16;5082323;27;20055;-79
2022/09/22 10:04:31;;;;;;;3.53;1.77;;;;;;;12.69;64.00;100590.94;5102113;27;20439;-79
2022/09/22 10:07:13;;;;;;;3.75;1.80;;;;;;;12.73;63.70;100595.88;5114175;27;20428;-80
2022/09/22 10:09:42;;;;;;;3.17;1.60;;;;;;;12.82;63.37;100589.75;5123351;27;20039;-79
2022/09/22 10:12:24;;;;;;;4.40;1.70;;;;;;;12.77;63.25;100586.66;5123253;27;20045;-79
2022/09/22 10:14:53;;;;;;;5.18;1.88;;;;;;;12.86;63.31;100578.84;5083906;27;20167;-79
2022/09/22 10:17:22;;;;;;;3.40;1.85;;;;;;;12.91;63.14;100580.13;5080781;27;20145;-80
2022/09/22 10:19:49;;;;;;;4.25;1.65;;;;;;;12.95;62.95;100581.56;5106076;27;20129;-79
2022/09/22 10:22:22;;;;;;;5.30;1.88;;;;;;;12.97;62.88;100578.72;5090493;27;20077;-79
2022/09/22 10:24:52;;;;;;;3.97;1.70;;;;;;;12.98;62.72;100575.94;5099803;27;20383;-80
2022/09/22 10:27:20;;;;;;;4.53;1.63;;;;;;;13.00;62.16;100571.34;5137459;27;20397;-80
2022/09/22 10:29:46;;;;;;;4.47;1.80;;;;;;;13.04;62.08;100561.22;5096124;27;20114;-80
2022/09/22 10:32:14;;;;;;;2.38;1.63;;;;;;;13.07;62.23;100566.28;5080232;27;20047;-80
2022/09/22 10:34:49;;;;;;;5.95;1.98;;;;;;;13.09;62.02;100567.00;5090088;28;20490;-80
2022/09/22 10:37:19;;;;;;;6.03;1.70;;;;;;;13.10;61.68;100560.72;5108045;27;20546;-80
2022/09/22 10:40:00;;;;;;;4.10;1.60;;;;;;;13.05;60.12;100568.25;5081000;27;20035;-81
2022/09/22 10:42:34;;;;;;;5.43;1.70;;;;;;;13.09;60.18;100564.34;5115935;27;20410;-80
2022/09/22 10:45:13;;;;;;;6.75;1.80;;;;;;;13.09;60.34;100552.84;5083165;27;20086;-80
2022/09/22 10:47:50;;;;;;;4.28;1.73;;;;;;;13.13;60.79;100556.94;5101774;27;20051;-80
2022/09/22 10:50:30;;;;;;;3.65;1.88;;;;;;;13.12;59.78;100548.06;5125757;27;20035;-80
2022/09/22 10:53:11;;;;;;;4.38;1.80;;;;;;;13.14;58.52;100547.94;5123216;27;20523;-80
2022/09/22 10:56:12;;;;;;;3.50;1.50;;;;;;;13.14;59.97;100542.63;5112406;27;20043;-79
2022/09/22 10:58:58;;;;;;;1.55;1.42;;;;;;;13.25;60.19;100538.03;5113941;27;20406;-80
2022/09/22 11:02:03;;;;;;;4.43;1.75;;;;;;;13.22;60.30;100538.28;5095874;27;20153;-80
2022/09/22 11:04:46;;;;;;;4.43;1.63;;;;;;;13.26;58.00;100538.88;5111058;27;20070;-80
2022/09/22 11:13:34;;;;;;;4.05;1.80;;;;;;;13.39;59.21;100536.00;5124424;27;20423;-80
2022/09/22 11:16:32;;;;;;;3.17;1.63;;;;;;;13.39;59.07;100530.66;5131746;27;20122;-79
2022/09/22 11:19:36;;;;;;;6.25;2.20;;;;;;;13.43;58.99;100522.25;5109692;27;20126;-78
2022/09/22 11:22:45;;;;;;;4.68;2.22;;;;;;;13.44;58.72;100523.91;5095356;27;20481;-80
2022/09/22 11:25:30;;;;;;;4.68;2.30;;;;;;;13.52;58.90;100511.72;5019848;28;20450;-79
2022/09/22 11:28:07;;;;;;;4.22;1.88;;;;;;;13.60;59.15;100518.03;5130999;27;20130;-80
2022/09/22 11:30:39;;;;;;;2.65;2.05;;;;;;;13.64;58.75;100513.28;5116991;27;20035;-80
2022/09/22 11:33:18;;;;;;;4.03;2.27;;;;;;;13.67;56.36;100519.19;5103013;27;20504;-80
2022/09/22 11:36:03;;;;;;;3.45;1.98;;;;;;;13.77;57.84;100507.69;5093873;27;20063;-80
2022/09/22 11:39:05;;;;;;;3.13;2.53;;;;;;;13.72;56.83;100507.25;5090452;27;20067;-80
2022/09/22 11:41:55;;;;;;;5.43;1.90;;;;;;;13.78;57.99;100496.00;5093427;27;20444;-80
2022/09/22 11:44:42;;;;;;;3.70;1.65;;;;;;;13.86;58.20;100502.31;5122504;27;20039;-80
2022/09/22 11:47:35;;;;;;;1.98;1.60;;;;;;;13.86;58.63;100498.81;5087738;27;20075;-80
2022/09/22 11:50:21;;;;;;;3.05;1.83;;;;;;;13.91;57.54;100496.56;5098627;27;20066;-80
2022/09/22 11:53:28;;;;;;;3.70;1.88;;;;;;;13.92;57.82;100492.06;5140132;27;20043;-81
2022/09/22 11:56:08;;;;;;;4.07;1.88;;;;;;;14.00;58.05;100484.19;5062718;27;20063;-80
2022/09/22 11:58:38;;;;;;;4.15;1.80;;;;;;;14.13;57.81;100483.91;5125471;27;20095;-80
2022/09/22 12:01:19;;;;;;;2.28;1.50;;;;;;;14.09;57.18;100478.00;5095173;27;20049;-80
2022/09/22 12:04:00;;;;;;;2.55;1.90;;;;;;;14.17;57.35;100475.47;5094013;27;20043;-80
2022/09/22 12:06:33;;;;;;;3.17;1.45;;;;;;;14.23;57.79;100476.72;5106218;27;20043;-80
2022/09/22 12:09:05;;;;;;;2.45;1.60;;;;;;;14.24;56.93;100468.53;5115984;27;20045;-80